sensor_id;sensor_type;location;lat;lon;timestamp;pressure;altitude;pressure_sealevel;temperature;humidity
11038;BME280;5572;49.540;11.932;2023-05-19T00:01:51;97722.63;;;10.66;100.00
11038;BME280;5572;49.540;11.932;2023-05-19T00:04:19;97721.50;;;10.57;100.00
11038;BME280;5572;49.540;11.932;2023-05-19T00:06:49;97719.66;;;10.62;100.00
11038;BME280;5572;49.540;11.932;2023-05-19T00:09:16;97705.63;;;10.75;100.00
11038;BME280;5572;49.540;11.932;2023-05-19T00:11:43;97693.00;;;10.86;100.00
11038;BME280;5572;49.540;11.932;2023-05-19T00:14:12;97682.69;;;10.83;100.00
11038;BME280;5572;49.540;11.932;2023-05-19T00:16:39;97666.16;;;10.74;100.00
11038;BME280;5572;49.540;11.932;2023-05-19T00:19:06;97662.09;;;10.72;100.00
11038;BME280;5572;49.540;11.932;2023-05-19T00:21:34;97664.00;;;10.71;100.00
11038;BME280;5572;49.540;11.932;2023-05-19T00:24:02;97651.56;;;10.75;100.00
11038;BME280;5572;49.540;11.932;2023-05-19T00:26:29;97643.38;;;10.65;100.00
11038;BME280;5572;49.540;11.932;2023-05-19T00:28:55;97643.38;;;10.65;100.00
11038;BME280;5572;49.540;11.932;2023-05-19T00:31:23;97635.28;;;10.65;100.00
11038;BME280;5572;49.540;11.932;2023-05-19T00:33:50;97632.56;;;10.65;100.00
11038;BME280;5572;49.540;11.932;2023-05-19T00:36:17;97620.72;;;10.71;100.00
11038;BME280;5572;49.540;11.932;2023-05-19T00:38:43;97623.19;;;10.78;100.00
11038;BME280;5572;49.540;11.932;2023-05-19T00:41:10;97614.81;;;10.79;100.00
11038;BME280;5572;49.540;11.932;2023-05-19T00:43:37;97599.66;;;10.78;100.00
11038;BME280;5572;49.540;11.932;2023-05-19T00:46:03;97598.56;;;10.79;100.00
11038;BME280;5572;49.540;11.932;2023-05-19T00:48:32;97598.53;;;10.69;100.00
11038;BME280;5572;49.540;11.932;2023-05-19T00:50:59;97591.78;;;10.72;100.00
11038;BME280;5572;49.540;11.932;2023-05-19T00:53:29;97595.00;;;10.69;100.00
11038;BME280;5572;49.540;11.932;2023-05-19T00:55:56;97587.44;;;10.71;100.00
11038;BME280;5572;49.540;11.932;2023-05-19T00:58:24;97588.78;;;10.68;100.00
11038;BME280;5572;49.540;11.932;2023-05-19T01:00:53;97576.88;;;10.59;100.00
11038;BME280;5572;49.540;11.932;2023-05-19T01:03:27;97563.34;;;10.64;100.00
11038;BME280;5572;49.540;11.932;2023-05-19T01:05:56;97553.63;;;10.63;100.00
11038;BME280;5572;49.540;11.932;2023-05-19T01:08:26;97537.38;;;10.63;100.00
11038;BME280;5572;49.540;11.932;2023-05-19T01:10:53;97530.63;;;10.61;100.00
11038;BME280;5572;49.540;11.932;2023-05-19T01:13:19;97533.88;;;10.63;100.00
11038;BME280;5572;49.540;11.932;2023-05-19T01:15:56;97529.28;;;10.58;100.00
11038;BME280;5572;49.540;11.932;2023-05-19T01:18:31;97528.22;;;10.64;100.00
11038;BME280;5572;49.540;11.932;2023-05-19T01:21:18;97524.44;;;10.60;100.00
11038;BME280;5572;49.540;11.932;2023-05-19T01:23:55;97512.81;;;10.65;100.00
11038;BME280;5572;49.540;11.932;2023-05-19T01:26:46;97506.84;;;10.63;100.00
11038;BME280;5572;49.540;11.932;2023-05-19T01:29:41;97490.88;;;10.56;100.00
11038;BME280;5572;49.540;11.932;2023-05-19T01:32:18;97479.78;;;10.53;100.00
11038;BME280;5572;49.540;11.932;2023-05-19T01:34:47;97467.41;;;10.67;100.00
11038;BME280;5572;49.540;11.932;2023-05-19T01:37:15;97446.31;;;10.79;100.00
11038;BME280;5572;49.540;11.932;2023-05-19T01:39:43;97450.63;;;10.65;100.00
11038;BME280;5572;49.540;11.932;2023-05-19T01:42:11;97439.00;;;10.74;100.00
11038;BME280;5572;49.540;11.932;2023-05-19T01:44:38;97435.75;;;10.67;100.00
11038;BME280;5572;49.540;11.932;2023-05-19T01:47:05;97423.06;;;10.68;100.00
11038;BME280;5572;49.540;11.932;2023-05-19T01:49:33;97424.94;;;10.57;100.00
11038;BME280;5572;49.540;11.932;2023-05-19T01:52:00;97408.44;;;10.69;100.00
11038;BME280;5572;49.540;11.932;2023-05-19T01:54:26;97411.41;;;10.67;100.00
11038;BME280;5572;49.540;11.932;2023-05-19T01:56:58;97410.31;;;10.53;100.00
11038;BME280;5572;49.540;11.932;2023-05-19T01:59:36;97388.44;;;10.65;100.00
11038;BME280;5572;49.540;11.932;2023-05-19T02:02:14;97383.28;;;10.48;100.00
11038;BME280;5572;49.540;11.932;2023-05-19T02:04:50;97386.53;;;10.55;100.00
11038;BME280;5572;49.540;11.932;2023-05-19T02:07:26;97372.47;;;10.58;100.00
11038;BME280;5572;49.540;11.932;2023-05-19T02:10:00;97366.00;;;10.49;100.00
11038;BME280;5572;49.540;11.932;2023-05-19T02:12:33;97348.13;;;10.63;100.00
11038;BME280;5572;49.540;11.932;2023-05-19T02:15:04;97359.53;;;10.60;100.00
11038;BME280;5572;49.540;11.932;2023-05-19T02:17:32;97355.16;;;10.54;100.00
11038;BME280;5572;49.540;11.932;2023-05-19T02:20:01;97341.41;;;10.56;100.00
11038;BME280;5572;49.540;11.932;2023-05-19T02:22:29;97333.03;;;10.52;100.00
11038;BME280;5572;49.540;11.932;2023-05-19T02:24:56;97332.72;;;10.49;100.00
11038;BME280;5572;49.540;11.932;2023-05-19T02:27:22;97313.81;;;10.64;100.00
11038;BME280;5572;49.540;11.932;2023-05-19T02:29:49;97330.84;;;10.44;100.00
11038;BME280;5572;49.540;11.932;2023-05-19T02:32:16;97320.84;;;10.45;100.00
11038;BME280;5572;49.540;11.932;2023-05-19T02:34:42;97313.28;;;10.52;100.00
11038;BME280;5572;49.540;11.932;2023-05-19T02:37:11;97311.13;;;10.34;100.00
11038;BME280;5572;49.540;11.932;2023-05-19T02:39:37;97317.88;;;10.22;100.00
11038;BME280;5572;49.540;11.932;2023-05-19T02:42:04;97322.72;;;10.20;100.00
11038;BME280;5572;49.540;11.932;2023-05-19T02:44:31;97320.53;;;10.17;100.00
11038;BME280;5572;49.540;11.932;2023-05-19T02:46:57;97322.19;;;10.13;100.00
11038;BME280;5572;49.540;11.932;2023-05-19T02:49:24;97324.88;;;10.18;100.00
11038;BME280;5572;49.540;11.932;2023-05-19T02:51:50;97317.88;;;10.22;100.00
11038;BME280;5572;49.540;11.932;2023-05-19T02:54:18;97312.69;;;10.10;100.00
11038;BME280;5572;49.540;11.932;2023-05-19T02:56:45;97300.84;;;10.16;100.00
11038;BME280;5572;49.540;11.932;2023-05-19T02:59:11;97300.84;;;10.16;100.00
11038;BME280;5572;49.540;11.932;2023-05-19T03:01:38;97309.97;;;10.00;100.00
11038;BME280;5572;49.540;11.932;2023-05-19T03:04:04;97316.41;;;9.89;100.00
11038;BME280;5572;49.540;11.932;2023-05-19T03:06:31;97324.53;;;9.94;100.00
11038;BME280;5572;49.540;11.932;2023-05-19T03:08:58;97311.06;;;9.99;100.00
11038;BME280;5572;49.540;11.932;2023-05-19T03:11:26;97310.75;;;9.91;100.00
11038;BME280;5572;49.540;11.932;2023-05-19T03:13:53;97318.28;;;9.84;100.00
11038;BME280;5572;49.540;11.932;2023-05-19T03:16:20;97306.94;;;9.77;100.00
11038;BME280;5572;49.540;11.932;2023-05-19T03:18:46;97320.94;;;9.74;100.00
11038;BME280;5572;49.540;11.932;2023-05-19T03:21:13;97315.03;;;9.72;100.00
11038;BME280;5572;49.540;11.932;2023-05-19T03:23:40;97326.63;;;9.67;100.00
11038;BME280;5572;49.540;11.932;2023-05-19T03:26:06;97330.16;;;9.73;100.00
11038;BME280;5572;49.540;11.932;2023-05-19T03:28:34;97338.81;;;9.80;100.00
11038;BME280;5572;49.540;11.932;2023-05-19T03:31:01;97324.47;;;9.74;100.00
11038;BME280;5572;49.540;11.932;2023-05-19T03:33:27;97329.06;;;9.79;100.00
11038;BME280;5572;49.540;11.932;2023-05-19T03:35:55;97332.53;;;9.64;100.00
11038;BME280;5572;49.540;11.932;2023-05-19T03:38:21;97328.56;;;9.82;100.00
11038;BME280;5572;49.540;11.932;2023-05-19T03:40:48;97315.31;;;9.85;100.00
11038;BME280;5572;49.540;11.932;2023-05-19T03:43:14;97318.84;;;9.91;100.00
11038;BME280;5572;49.540;11.932;2023-05-19T03:45:42;97318.28;;;9.84;100.00
11038;BME280;5572;49.540;11.932;2023-05-19T03:48:09;97322.88;;;9.83;100.00
11038;BME280;5572;49.540;11.932;2023-05-19T03:50:35;97313.97;;;9.88;100.00
11038;BME280;5572;49.540;11.932;2023-05-19T03:53:02;97312.66;;;9.95;100.00
11038;BME280;5572;49.540;11.932;2023-05-19T03:55:28;97330.69;;;9.85;100.00
11038;BME280;5572;49.540;11.932;2023-05-19T03:57:55;97322.63;;;9.90;100.00
11038;BME280;5572;49.540;11.932;2023-05-19T04:00:22;97305.41;;;10.06;100.00
11038;BME280;5572;49.540;11.932;2023-05-19T04:02:50;97311.91;;;10.10;100.00
11038;BME280;5572;49.540;11.932;2023-05-19T04:05:16;97316.47;;;9.99;100.00
11038;BME280;5572;49.540;11.932;2023-05-19T04:07:43;97308.34;;;9.99;100.00
11038;BME280;5572;49.540;11.932;2023-05-19T04:10:11;97301.13;;;10.29;100.00
11038;BME280;5572;49.540;11.932;2023-05-19T04:12:38;97304.63;;;10.40;100.00
11038;BME280;5572;49.540;11.932;2023-05-19T04:15:05;97307.03;;;10.17;100.00
11038;BME280;5572;49.540;11.932;2023-05-19T04:17:32;97291.94;;;10.21;100.00
11038;BME280;5572;49.540;11.932;2023-05-19T04:20:00;97285.97;;;10.58;100.00
11038;BME280;5572;49.540;11.932;2023-05-19T04:22:27;97284.34;;;10.57;100.00
11038;BME280;5572;49.540;11.932;2023-05-19T04:24:53;97287.06;;;10.52;100.00
11038;BME280;5572;49.540;11.932;2023-05-19T04:27:20;97281.38;;;10.54;100.00
11038;BME280;5572;49.540;11.932;2023-05-19T04:29:47;97283.25;;;10.78;100.00
11038;BME280;5572;49.540;11.932;2023-05-19T04:32:13;97289.47;;;10.69;100.00
11038;BME280;5572;49.540;11.932;2023-05-19T04:34:42;97293.78;;;10.80;100.00
11038;BME280;5572;49.540;11.932;2023-05-19T04:37:11;97293.56;;;10.61;100.00
11038;BME280;5572;49.540;11.932;2023-05-19T04:39:38;97274.31;;;10.98;100.00
11038;BME280;5572;49.540;11.932;2023-05-19T04:42:07;97277.56;;;10.80;100.00
11038;BME280;5572;49.540;11.932;2023-05-19T04:44:34;97274.03;;;10.99;100.00
11038;BME280;5572;49.540;11.932;2023-05-19T04:47:02;97272.94;;;10.95;100.00
11038;BME280;5572;49.540;11.932;2023-05-19T04:49:30;97285.69;;;10.70;100.00
11038;BME280;5572;49.540;11.932;2023-05-19T04:51:57;97273.56;;;10.62;100.00
11038;BME280;5572;49.540;11.932;2023-05-19T04:54:24;97262.41;;;10.89;100.00
11038;BME280;5572;49.540;11.932;2023-05-19T04:56:51;97273.28;;;10.64;100.00
11038;BME280;5572;49.540;11.932;2023-05-19T04:59:18;97260.56;;;10.69;100.00
11038;BME280;5572;49.540;11.932;2023-05-19T05:01:44;97266.25;;;10.68;100.00
11038;BME280;5572;49.540;11.932;2023-05-19T05:04:11;97254.03;;;10.85;100.00
11038;BME280;5572;49.540;11.932;2023-05-19T05:06:37;97264.34;;;10.63;100.00
11038;BME280;5572;49.540;11.932;2023-05-19T05:09:06;97263.00;;;10.66;100.00
11038;BME280;5572;49.540;11.932;2023-05-19T05:11:35;97259.47;;;10.70;100.00
11038;BME280;5572;49.540;11.932;2023-05-19T05:14:02;97245.13;;;10.75;100.00
11038;BME280;5572;49.540;11.932;2023-05-19T05:16:29;97238.03;;;11.04;100.00
11038;BME280;5572;49.540;11.932;2023-05-19T05:18:56;97233.41;;;11.09;100.00
11038;BME280;5572;49.540;11.932;2023-05-19T05:21:23;97226.38;;;11.08;100.00
11038;BME280;5572;49.540;11.932;2023-05-19T05:23:50;97236.94;;;11.00;100.00
11038;BME280;5572;49.540;11.932;2023-05-19T05:26:19;97238.28;;;11.07;100.00
11038;BME280;5572;49.540;11.932;2023-05-19T05:28:48;97226.34;;;11.13;100.00
11038;BME280;5572;49.540;11.932;2023-05-19T05:31:15;97214.84;;;11.46;100.00
11038;BME280;5572;49.540;11.932;2023-05-19T05:33:42;97211.34;;;11.45;100.00
11038;BME280;5572;49.540;11.932;2023-05-19T05:36:09;97214.94;;;11.31;100.00
11038;BME280;5572;49.540;11.932;2023-05-19T05:38:36;97221.50;;;11.10;100.00
11038;BME280;5572;49.540;11.932;2023-05-19T05:41:02;97215.44;;;11.38;100.00
11038;BME280;5572;49.540;11.932;2023-05-19T05:43:29;97229.66;;;11.00;100.00
11038;BME280;5572;49.540;11.932;2023-05-19T05:45:57;97211.66;;;11.34;100.00
11038;BME280;5572;49.540;11.932;2023-05-19T05:48:24;97216.59;;;11.22;100.00
11038;BME280;5572;49.540;11.932;2023-05-19T05:50:51;97211.41;;;11.30;100.00
11038;BME280;5572;49.540;11.932;2023-05-19T05:53:19;97209.69;;;11.49;100.00
11038;BME280;5572;49.540;11.932;2023-05-19T05:55:46;97209.38;;;11.61;100.00
11038;BME280;5572;49.540;11.932;2023-05-19T05:58:13;97206.09;;;11.64;100.00
11038;BME280;5572;49.540;11.932;2023-05-19T06:00:41;97222.59;;;11.09;100.00
11038;BME280;5572;49.540;11.932;2023-05-19T06:03:09;97210.03;;;11.33;100.00
11038;BME280;5572;49.540;11.932;2023-05-19T06:05:42;97192.25;;;11.75;100.00
11038;BME280;5572;49.540;11.932;2023-05-19T06:08:08;97183.66;;;11.58;100.00
11038;BME280;5572;49.540;11.932;2023-05-19T06:10:35;97186.59;;;11.67;100.00
11038;BME280;5572;49.540;11.932;2023-05-19T06:13:05;97179.53;;;11.71;100.00
11038;BME280;5572;49.540;11.932;2023-05-19T06:15:32;97172.75;;;11.73;100.00
11038;BME280;5572;49.540;11.932;2023-05-19T06:17:59;97169.09;;;11.93;100.00
11038;BME280;5572;49.540;11.932;2023-05-19T06:20:27;97184.09;;;11.75;100.00
11038;BME280;5572;49.540;11.932;2023-05-19T06:22:53;97164.50;;;11.88;100.00
11038;BME280;5572;49.540;11.932;2023-05-19T06:25:20;97166.00;;;11.66;100.00
11038;BME280;5572;49.540;11.932;2023-05-19T06:27:47;97159.38;;;11.87;100.00
11038;BME280;5572;49.540;11.932;2023-05-19T06:30:13;97152.84;;;11.93;100.00
11038;BME280;5572;49.540;11.932;2023-05-19T06:32:40;97144.69;;;12.26;100.00
11038;BME280;5572;49.540;11.932;2023-05-19T06:35:07;97168.78;;;11.61;100.00
11038;BME280;5572;49.540;11.932;2023-05-19T06:37:35;97137.44;;;12.45;100.00
11038;BME280;5572;49.540;11.932;2023-05-19T06:40:01;97156.09;;;11.90;100.00
11038;BME280;5572;49.540;11.932;2023-05-19T06:42:29;97160.06;;;11.69;100.00
11038;BME280;5572;49.540;11.932;2023-05-19T06:44:56;97152.78;;;11.98;100.00
11038;BME280;5572;49.540;11.932;2023-05-19T06:47:23;97132.56;;;12.70;100.00
11038;BME280;5572;49.540;11.932;2023-05-19T06:49:49;97143.44;;;12.42;100.00
11038;BME280;5572;49.540;11.932;2023-05-19T06:52:19;97137.00;;;12.85;100.00
11038;BME280;5572;49.540;11.932;2023-05-19T06:54:47;97145.44;;;11.98;100.00
11038;BME280;5572;49.540;11.932;2023-05-19T06:57:14;97138.72;;;12.24;100.00
11038;BME280;5572;49.540;11.932;2023-05-19T06:59:41;97126.72;;;12.82;100.00
11038;BME280;5572;49.540;11.932;2023-05-19T07:02:08;97122.63;;;12.61;100.00
11038;BME280;5572;49.540;11.932;2023-05-19T07:04:34;97119.75;;;12.76;100.00
11038;BME280;5572;49.540;11.932;2023-05-19T07:07:01;97110.63;;;12.67;100.00
11038;BME280;5572;49.540;11.932;2023-05-19T07:09:28;97092.75;;;12.89;100.00
11038;BME280;5572;49.540;11.932;2023-05-19T07:11:55;97095.16;;;12.90;100.00
11038;BME280;5572;49.540;11.932;2023-05-19T07:14:22;97069.91;;;13.32;100.00
11038;BME280;5572;49.540;11.932;2023-05-19T07:16:49;97073.84;;;13.39;100.00
11038;BME280;5572;49.540;11.932;2023-05-19T07:19:15;97095.22;;;12.62;100.00
11038;BME280;5572;49.540;11.932;2023-05-19T07:21:43;97081.25;;;13.15;100.00
11038;BME280;5572;49.540;11.932;2023-05-19T07:24:10;97093.06;;;12.83;100.00
11038;BME280;5572;49.540;11.932;2023-05-19T07:26:36;97064.06;;;13.57;100.00
11038;BME280;5572;49.540;11.932;2023-05-19T07:29:04;97060.41;;;13.48;100.00
11038;BME280;5572;49.540;11.932;2023-05-19T07:31:31;97043.59;;;13.46;100.00
11038;BME280;5572;49.540;11.932;2023-05-19T07:33:57;97039.44;;;14.17;100.00
11038;BME280;5572;49.540;11.932;2023-05-19T07:36:24;97037.13;;;13.92;100.00
11038;BME280;5572;49.540;11.932;2023-05-19T07:38:51;97011.44;;;13.98;100.00
11038;BME280;5572;49.540;11.932;2023-05-19T07:41:17;97005.09;;;14.34;100.00
11038;BME280;5572;49.540;11.932;2023-05-19T07:43:45;96992.53;;;14.87;100.00
11038;BME280;5572;49.540;11.932;2023-05-19T07:46:13;96986.47;;;14.41;100.00
11038;BME280;5572;49.540;11.932;2023-05-19T07:48:40;96966.63;;;14.27;100.00
11038;BME280;5572;49.540;11.932;2023-05-19T07:51:07;96936.28;;;15.18;100.00
11038;BME280;5572;49.540;11.932;2023-05-19T07:53:34;96913.34;;;15.54;100.00
11038;BME280;5572;49.540;11.932;2023-05-19T07:56:01;96865.56;;;15.56;100.00
11038;BME280;5572;49.540;11.932;2023-05-19T07:58:27;96866.19;;;15.84;100.00
11038;BME280;5572;49.540;11.932;2023-05-19T08:00:55;96910.03;;;16.04;100.00
11038;BME280;5572;49.540;11.932;2023-05-19T08:03:23;96878.88;;;15.88;100.00
11038;BME280;5572;49.540;11.932;2023-05-19T08:05:50;96892.69;;;14.74;100.00
11038;BME280;5572;49.540;11.932;2023-05-19T08:08:17;96915.06;;;15.06;100.00
11038;BME280;5572;49.540;11.932;2023-05-19T08:10:44;96889.56;;;15.76;100.00
11038;BME280;5572;49.540;11.932;2023-05-19T08:13:11;96820.31;;;16.84;100.00
11038;BME280;5572;49.540;11.932;2023-05-19T08:15:37;96868.06;;;16.22;100.00
11038;BME280;5572;49.540;11.932;2023-05-19T08:18:04;96815.75;;;17.38;100.00
11038;BME280;5572;49.540;11.932;2023-05-19T08:20:32;96890.25;;;16.29;100.00
11038;BME280;5572;49.540;11.932;2023-05-19T08:22:59;96913.97;;;14.72;100.00
11038;BME280;5572;49.540;11.932;2023-05-19T08:25:25;96914.91;;;14.89;100.00
11038;BME280;5572;49.540;11.932;2023-05-19T08:27:52;96926.28;;;15.27;100.00
11038;BME280;5572;49.540;11.932;2023-05-19T08:30:19;96953.94;;;14.23;100.00
11038;BME280;5572;49.540;11.932;2023-05-19T08:32:45;96941.34;;;15.24;100.00
11038;BME280;5572;49.540;11.932;2023-05-19T08:35:12;96921.94;;;15.48;100.00
11038;BME280;5572;49.540;11.932;2023-05-19T08:37:40;96960.16;;;15.86;100.00
11038;BME280;5572;49.540;11.932;2023-05-19T08:40:10;96912.06;;;16.29;100.00
11038;BME280;5572;49.540;11.932;2023-05-19T08:42:41;96929.78;;;15.71;100.00
11038;BME280;5572;49.540;11.932;2023-05-19T08:45:08;96954.91;;;15.02;100.00
11038;BME280;5572;49.540;11.932;2023-05-19T08:47:35;96949.19;;;15.26;100.00
11038;BME280;5572;49.540;11.932;2023-05-19T08:50:03;96932.72;;;15.83;100.00
11038;BME280;5572;49.540;11.932;2023-05-19T08:52:36;96895.09;;;16.40;100.00
11038;BME280;5572;49.540;11.932;2023-05-19T08:55:14;96944.78;;;15.16;100.00
11038;BME280;5572;49.540;11.932;2023-05-19T08:57:46;96926.06;;;15.01;100.00
11038;BME280;5572;49.540;11.932;2023-05-19T09:00:14;96904.00;;;15.77;100.00
11038;BME280;5572;49.540;11.932;2023-05-19T09:02:41;96953.78;;;15.60;100.00
11038;BME280;5572;49.540;11.932;2023-05-19T09:05:09;96943.63;;;15.17;100.00
11038;BME280;5572;49.540;11.932;2023-05-19T09:07:36;96972.56;;;14.91;100.00
11038;BME280;5572;49.540;11.932;2023-05-19T09:10:03;96935.09;;;15.76;100.00
11038;BME280;5572;49.540;11.932;2023-05-19T09:12:32;96909.03;;;15.92;100.00
11038;BME280;5572;49.540;11.932;2023-05-19T09:14:59;96901.44;;;16.19;100.00
11038;BME280;5572;49.540;11.932;2023-05-19T09:17:26;96899.13;;;16.04;100.00
11038;BME280;5572;49.540;11.932;2023-05-19T09:19:53;96888.78;;;15.84;100.00
11038;BME280;5572;49.540;11.932;2023-05-19T09:22:19;96897.38;;;15.69;100.00
11038;BME280;5572;49.540;11.932;2023-05-19T09:24:46;96930.13;;;15.26;100.00
11038;BME280;5572;49.540;11.932;2023-05-19T09:27:14;96912.22;;;15.85;100.00
11038;BME280;5572;49.540;11.932;2023-05-19T09:29:42;96792.47;;;18.07;100.00
11038;BME280;5572;49.540;11.932;2023-05-19T09:32:08;96689.09;;;19.42;100.00
11038;BME280;5572;49.540;11.932;2023-05-19T09:34:39;96706.25;;;17.72;100.00
11038;BME280;5572;49.540;11.932;2023-05-19T09:37:06;96642.28;;;19.35;100.00
11038;BME280;5572;49.540;11.932;2023-05-19T09:39:33;96652.84;;;18.56;100.00
11038;BME280;5572;49.540;11.932;2023-05-19T09:42:03;96609.09;;;18.15;100.00
11038;BME280;5572;49.540;11.932;2023-05-19T09:44:30;96625.66;;;18.51;100.00
11038;BME280;5572;49.540;11.932;2023-05-19T09:46:59;96687.53;;;17.25;100.00
11038;BME280;5572;49.540;11.932;2023-05-19T09:49:28;96745.88;;;17.21;100.00
11038;BME280;5572;49.540;11.932;2023-05-19T09:51:55;96734.69;;;19.02;100.00
11038;BME280;5572;49.540;11.932;2023-05-19T09:54:23;96841.78;;;17.53;100.00
11038;BME280;5572;49.540;11.932;2023-05-19T09:56:50;96781.59;;;18.48;100.00
11038;BME280;5572;49.540;11.932;2023-05-19T09:59:18;96811.66;;;17.99;100.00
11038;BME280;5572;49.540;11.932;2023-05-19T10:01:49;96795.63;;;16.72;100.00
11038;BME280;5572;49.540;11.932;2023-05-19T10:04:18;96718.97;;;18.46;100.00
11038;BME280;5572;49.540;11.932;2023-05-19T10:06:46;96676.94;;;18.02;100.00
11038;BME280;5572;49.540;11.932;2023-05-19T10:09:21;96647.66;;;17.82;100.00
11038;BME280;5572;49.540;11.932;2023-05-19T10:11:48;96556.59;;;18.02;100.00
11038;BME280;5572;49.540;11.932;2023-05-19T10:14:15;96678.41;;;17.99;100.00
11038;BME280;5572;49.540;11.932;2023-05-19T10:16:44;96655.84;;;18.43;100.00
11038;BME280;5572;49.540;11.932;2023-05-19T10:19:11;96591.97;;;19.07;100.00
11038;BME280;5572;49.540;11.932;2023-05-19T10:21:40;96686.28;;;18.01;100.00
11038;BME280;5572;49.540;11.932;2023-05-19T10:24:07;96794.81;;;18.17;100.00
11038;BME280;5572;49.540;11.932;2023-05-19T10:26:34;96678.16;;;18.13;100.00
11038;BME280;5572;49.540;11.932;2023-05-19T10:29:02;96688.50;;;17.58;100.00
11038;BME280;5572;49.540;11.932;2023-05-19T10:31:31;96707.06;;;18.95;100.00
11038;BME280;5572;49.540;11.932;2023-05-19T10:34:08;96613.00;;;19.39;100.00
11038;BME280;5572;49.540;11.932;2023-05-19T10:36:45;96605.38;;;20.07;100.00
11038;BME280;5572;49.540;11.932;2023-05-19T10:39:16;96676.03;;;19.87;100.00
11038;BME280;5572;49.540;11.932;2023-05-19T10:41:55;96690.81;;;19.58;100.00
11038;BME280;5572;49.540;11.932;2023-05-19T10:44:39;96706.53;;;18.81;100.00
11038;BME280;5572;49.540;11.932;2023-05-19T10:47:06;96698.19;;;18.78;100.00
11038;BME280;5572;49.540;11.932;2023-05-19T10:49:36;96724.28;;;19.40;100.00
11038;BME280;5572;49.540;11.932;2023-05-19T10:52:18;96783.31;;;18.32;100.00
11038;BME280;5572;49.540;11.932;2023-05-19T10:54:46;96684.75;;;18.85;100.00
11038;BME280;5572;49.540;11.932;2023-05-19T10:57:14;96813.78;;;18.22;100.00
11038;BME280;5572;49.540;11.932;2023-05-19T10:59:44;96817.59;;;17.63;100.00
11038;BME280;5572;49.540;11.932;2023-05-19T11:02:36;96648.19;;;19.13;100.00
11038;BME280;5572;49.540;11.932;2023-05-19T11:05:06;96686.78;;;19.91;100.00
11038;BME280;5572;49.540;11.932;2023-05-19T11:07:36;96700.31;;;19.04;100.00
11038;BME280;5572;49.540;11.932;2023-05-19T11:10:08;96759.88;;;18.43;100.00
11038;BME280;5572;49.540;11.932;2023-05-19T11:12:42;96636.28;;;19.69;100.00
11038;BME280;5572;49.540;11.932;2023-05-19T11:15:11;96547.63;;;20.31;100.00
11038;BME280;5572;49.540;11.932;2023-05-19T11:17:39;96605.31;;;18.85;100.00
11038;BME280;5572;49.540;11.932;2023-05-19T11:20:08;96553.31;;;19.72;100.00
11038;BME280;5572;49.540;11.932;2023-05-19T11:23:03;96661.28;;;19.07;100.00
11038;BME280;5572;49.540;11.932;2023-05-19T11:25:41;96786.66;;;18.09;100.00
11038;BME280;5572;49.540;11.932;2023-05-19T11:28:09;96901.84;;;17.70;100.00
11038;BME280;5572;49.540;11.932;2023-05-19T11:30:38;96878.41;;;17.60;100.00
11038;BME280;5572;49.540;11.932;2023-05-19T11:33:05;96892.09;;;17.43;100.00
11038;BME280;5572;49.540;11.932;2023-05-19T11:35:34;96837.94;;;18.69;100.00
11038;BME280;5572;49.540;11.932;2023-05-19T11:38:04;96878.56;;;17.64;100.00
11038;BME280;5572;49.540;11.932;2023-05-19T11:40:32;96846.31;;;18.15;100.00
11038;BME280;5572;49.540;11.932;2023-05-19T11:42:59;96805.56;;;17.93;100.00
11038;BME280;5572;49.540;11.932;2023-05-19T11:45:28;96915.84;;;19.29;100.00
11038;BME280;5572;49.540;11.932;2023-05-19T11:47:57;96827.66;;;18.87;100.00
11038;BME280;5572;49.540;11.932;2023-05-19T11:50:25;96756.97;;;19.57;100.00
11038;BME280;5572;49.540;11.932;2023-05-19T11:52:52;96844.53;;;18.19;100.00
11038;BME280;5572;49.540;11.932;2023-05-19T11:55:21;96804.31;;;18.69;100.00
11038;BME280;5572;49.540;11.932;2023-05-19T11:57:56;96766.38;;;18.59;100.00
11038;BME280;5572;49.540;11.932;2023-05-19T12:00:24;96772.13;;;18.45;100.00
11038;BME280;5572;49.540;11.932;2023-05-19T12:02:51;96884.44;;;17.91;100.00
11038;BME280;5572;49.540;11.932;2023-05-19T12:05:19;96839.09;;;18.11;100.00
11038;BME280;5572;49.540;11.932;2023-05-19T12:07:47;96814.72;;;19.16;100.00
11038;BME280;5572;49.540;11.932;2023-05-19T12:10:16;96837.91;;;18.28;100.00
11038;BME280;5572;49.540;11.932;2023-05-19T12:12:45;96749.44;;;18.77;100.00
11038;BME280;5572;49.540;11.932;2023-05-19T12:15:14;96795.84;;;19.14;100.00
11038;BME280;5572;49.540;11.932;2023-05-19T12:17:41;96689.00;;;19.38;100.00
11038;BME280;5572;49.540;11.932;2023-05-19T12:20:10;96758.16;;;18.91;100.00
11038;BME280;5572;49.540;11.932;2023-05-19T12:22:38;96619.63;;;20.13;100.00
11038;BME280;5572;49.540;11.932;2023-05-19T12:25:05;96523.03;;;20.66;100.00
11038;BME280;5572;49.540;11.932;2023-05-19T12:27:35;96632.28;;;19.78;100.00
11038;BME280;5572;49.540;11.932;2023-05-19T12:30:04;96713.69;;;19.50;100.00
11038;BME280;5572;49.540;11.932;2023-05-19T12:32:32;96797.16;;;20.09;100.00
11038;BME280;5572;49.540;11.932;2023-05-19T12:35:02;96676.38;;;20.76;100.00
11038;BME280;5572;49.540;11.932;2023-05-19T12:37:30;96781.50;;;19.29;100.00
11038;BME280;5572;49.540;11.932;2023-05-19T12:39:58;96883.69;;;18.48;100.00
11038;BME280;5572;49.540;11.932;2023-05-19T12:42:26;96871.44;;;19.15;100.00
11038;BME280;5572;49.540;11.932;2023-05-19T12:44:56;96974.94;;;18.23;100.00
11038;BME280;5572;49.540;11.932;2023-05-19T12:47:30;96864.38;;;18.45;100.00
11038;BME280;5572;49.540;11.932;2023-05-19T12:50:05;96873.53;;;18.49;100.00
11038;BME280;5572;49.540;11.932;2023-05-19T12:52:39;96813.72;;;18.80;100.00
11038;BME280;5572;49.540;11.932;2023-05-19T12:55:07;96827.09;;;18.61;100.00
11038;BME280;5572;49.540;11.932;2023-05-19T12:57:36;96888.91;;;18.62;100.00